Time;durP1;ratioP1;P1;durP2;ratioP2;P2;SDS_P1;SDS_P2;PMS_P1;PMS_P2;Temp;Humidity;BMP_temperature;BMP_pressure;BME280_temperature;BME280_humidity;BME280_pressure;Samples;Min_cycle;Max_cycle;Signal;HPM_P1;HPM_P2
2023/03/28 05:01:26;;;;;;;;;1.00;1.00;;;;;11.16;42.29;68108.50;5505135;23;45376;-80
2023/03/28 05:03:52;;;;;;;;;1.67;1.00;;;;;11.05;42.41;68244.28;4996024;28;45578;-80
2023/03/28 05:06:18;;;;;;;;;2.00;2.00;;;;;10.95;42.18;68023.44;4991633;28;45964;-83
2023/03/28 05:08:43;;;;;;;;;1.00;1.00;;;;;11.32;42.63;68105.66;4995764;28;45435;-82
2023/03/28 05:11:09;;;;;;;;;0.00;0.00;;;;;10.93;42.29;68085.16;4997037;28;45310;-82
2023/03/28 05:13:35;;;;;;;;;2.00;2.00;;;;;11.22;42.64;68240.00;4996724;28;45360;-81
2023/03/28 05:16:00;;;;;;;;;2.00;2.00;;;;;11.02;42.40;68094.59;4996549;28;45470;-85
2023/03/28 05:18:26;;;;;;;;;2.67;2.00;;;;;10.91;42.61;68058.38;4990982;28;45424;-84
2023/03/28 05:20:51;;;;;;;;;1.00;1.00;;;;;10.81;42.70;68080.94;4996977;28;45297;-84
2023/03/28 05:23:17;;;;;;;;;1.00;1.00;;;;;11.31;42.82;68160.06;4993854;28;46605;-84
2023/03/28 05:25:42;;;;;;;;;2.67;1.00;;;;;11.28;42.73;68088.28;4994393;28;46184;-87
2023/03/28 05:28:08;;;;;;;;;1.00;1.00;;;;;11.28;42.86;68083.00;4986791;28;45706;-86
2023/03/28 05:30:34;;;;;;;;;2.33;2.33;;;;;10.80;43.37;68075.06;4985603;28;45505;-82
2023/03/28 05:32:59;;;;;;;;;1.67;1.67;;;;;10.98;43.15;68064.03;4989199;28;46980;-83
2023/03/28 05:35:25;;;;;;;;;3.67;2.00;;;;;9.83;43.24;67931.72;4995731;28;46328;-84
2023/03/28 05:37:51;;;;;;;;;2.00;2.00;;;;;11.12;43.18;68091.16;4991824;28;45509;-83
2023/03/28 05:40:16;;;;;;;;;5.33;5.00;;;;;11.12;43.54;68214.91;4992777;28;45523;-83
2023/03/28 05:42:45;;;;;;;;;5.00;4.00;;;;;9.97;43.51;68031.56;4990303;28;45557;-83
2023/03/28 05:45:11;;;;;;;;;2.00;1.00;;;;;10.43;43.40;68243.97;4974237;28;47973;-82
2023/03/28 05:47:37;;;;;;;;;2.67;1.00;;;;;11.08;43.58;68067.91;4992282;28;45397;-83
2023/03/28 05:50:03;;;;;;;;;2.67;2.67;;;;;10.77;43.63;68045.09;4984968;28;45373;-82
2023/03/28 05:52:28;;;;;;;;;2.33;2.33;;;;;10.39;43.48;68019.88;4989604;28;45389;-83
2023/03/28 05:54:56;;;;;;;;;1.67;1.67;;;;;10.55;43.85;67962.09;4992962;28;45451;-83
2023/03/28 05:57:22;;;;;;;;;3.00;2.00;;;;;11.02;43.87;68076.69;4982750;28;45473;-81
2023/03/28 05:59:48;;;;;;;;;2.00;2.00;;;;;10.96;43.51;68059.03;4995110;28;45640;-83
2023/03/28 06:02:16;;;;;;;;;4.00;4.00;;;;;10.74;43.89;68075.91;4990563;28;45522;-82
2023/03/28 06:04:43;;;;;;;;;2.67;1.67;;;;;10.38;43.77;68029.25;4972078;28;47114;-83
2023/03/28 06:07:10;;;;;;;;;2.67;2.67;;;;;11.01;44.06;68077.56;4995456;28;45990;-83
2023/03/28 06:09:39;;;;;;;;;2.00;2.00;;;;;10.98;43.91;68019.66;4997661;28;45525;-83
2023/03/28 06:12:06;;;;;;;;;4.00;2.50;;;;;10.97;44.34;68081.94;4999637;28;45519;-82
2023/03/28 06:14:31;;;;;;;;;2.00;2.00;;;;;10.94;44.46;68051.38;4999457;28;47027;-82
2023/03/28 06:16:58;;;;;;;;;2.33;2.33;;;;;10.46;44.14;68024.91;4996020;28;45918;-82
2023/03/28 06:19:24;;;;;;;;;2.00;2.00;;;;;10.54;44.38;68026.44;4996994;28;45508;-82
2023/03/28 06:21:49;;;;;;;;;3.00;3.00;;;;;10.88;44.07;68034.28;4980262;28;45432;-81
2023/03/28 06:24:15;;;;;;;;;4.33;2.33;;;;;10.85;44.82;68054.53;4998968;28;46473;-82
2023/03/28 06:26:41;;;;;;;;;2.67;2.67;;;;;10.57;44.55;68054.34;4980714;28;45442;-81
2023/03/28 06:29:06;;;;;;;;;3.00;3.00;;;;;10.76;44.86;68067.69;4998424;28;45586;-81
2023/03/28 06:31:32;;;;;;;;;2.00;2.00;;;;;10.87;44.58;68086.00;4995608;28;45673;-81
2023/03/28 06:33:58;;;;;;;;;5.00;4.00;;;;;10.90;44.84;68070.44;4998117;28;47066;-82
2023/03/28 06:36:23;;;;;;;;;2.00;2.00;;;;;10.90;44.91;68026.06;4998057;28;45394;-81
2023/03/28 06:38:51;;;;;;;;;5.00;3.00;;;;;10.91;44.72;68076.91;4998883;28;46240;-80
2023/03/28 06:41:16;;;;;;;;;2.33;1.33;;;;;10.61;44.95;68031.47;4997368;28;45465;-80
2023/03/28 06:43:42;;;;;;;;;5.33;4.33;;;;;10.94;45.27;68061.94;4996722;28;45533;-83
2023/03/28 06:46:08;;;;;;;;;3.33;3.00;;;;;10.34;44.99;67969.03;4997480;28;45637;-82
2023/03/28 06:48:34;;;;;;;;;2.00;2.00;;;;;11.05;44.88;68050.53;4998696;28;45356;-82
2023/03/28 06:51:02;;;;;;;;;4.00;4.00;;;;;10.19;45.00;67975.69;4999341;28;45379;-83
2023/03/28 06:53:28;;;;;;;;;3.00;3.00;;;;;10.90;45.06;68030.75;4999021;28;45567;-79
2023/03/28 06:55:54;;;;;;;;;3.00;3.00;;;;;10.88;44.92;68049.56;4998062;28;45381;-81
2023/03/28 06:58:21;;;;;;;;;3.00;3.00;;;;;10.73;44.87;67979.53;4998008;28;45409;-81
2023/03/28 07:00:46;;;;;;;;;4.00;4.00;;;;;10.75;44.95;68045.97;4992377;28;45279;-81
2023/03/28 07:03:11;;;;;;;;;1.00;1.00;;;;;10.80;45.26;68006.31;4978413;28;46069;-81
2023/03/28 07:05:38;;;;;;;;;3.00;3.00;;;;;10.24;45.43;67936.66;4979316;28;45401;-81
2023/03/28 07:08:05;;;;;;;;;4.00;4.00;;;;;10.97;45.00;68057.53;4979359;28;45533;-81
2023/03/28 07:10:31;;;;;;;;;3.67;3.67;;;;;10.53;45.27;67945.94;4978484;28;45417;-81
2023/03/28 07:12:56;;;;;;;;;4.00;4.00;;;;;10.23;45.12;68000.94;4976233;28;46045;-82
2023/03/28 07:15:21;;;;;;;;;5.33;5.33;;;;;10.80;45.17;68014.25;4971660;28;45517;-82
2023/03/28 07:17:47;;;;;;;;;4.00;4.00;;;;;10.79;45.07;68018.34;4958222;28;45444;-81
2023/03/28 07:20:12;;;;;;;;;3.00;2.00;;;;;10.47;44.86;67968.53;4970595;28;45500;-81
2023/03/28 07:22:38;;;;;;;;;5.33;5.33;;;;;10.55;45.09;67983.25;4963036;28;45587;-80
2023/03/28 07:25:03;;;;;;;;;3.33;3.33;;;;;10.90;45.23;68052.50;4969651;28;45500;-80
2023/03/28 07:27:33;;;;;;;;;2.00;2.00;;;;;10.69;44.97;67972.75;4977046;28;45499;-83
2023/03/28 07:29:58;;;;;;;;;2.00;2.00;;;;;10.91;44.93;68071.59;4976735;28;45535;-81
2023/03/28 07:32:23;;;;;;;;;2.00;2.00;;;;;10.64;44.78;67995.94;4961559;28;46247;-82
2023/03/28 07:34:49;;;;;;;;;3.67;3.67;;;;;10.27;44.61;67976.59;4984111;28;45319;-82
2023/03/28 07:37:14;;;;;;;;;4.67;4.67;;;;;10.26;44.78;67972.78;4978905;28;45422;-82
2023/03/28 07:39:42;;;;;;;;;3.67;3.67;;;;;10.23;45.07;67938.13;4964698;28;45461;-83
2023/03/28 07:42:12;;;;;;;;;4.00;4.00;;;;;10.83;45.01;67986.06;4975236;28;46345;-82
2023/03/28 07:44:38;;;;;;;;;4.00;4.00;;;;;11.19;44.73;68054.44;4972924;28;45412;-83
2023/03/28 07:47:04;;;;;;;;;4.67;4.67;;;;;11.22;44.80;68057.41;4958206;28;45520;-82
2023/03/28 07:49:30;;;;;;;;;2.00;2.00;;;;;10.88;44.93;68010.47;4956031;28;45610;-81
2023/03/28 07:51:55;;;;;;;;;4.00;3.33;;;;;11.27;44.58;68046.84;4977779;28;45670;-82
2023/03/28 07:54:21;;;;;;;;;7.67;6.67;;;;;11.32;44.68;68044.78;4966471;28;45361;-82
2023/03/28 07:56:47;;;;;;;;;4.00;4.00;;;;;11.34;44.92;68039.22;4971538;28;45390;-82
2023/03/28 07:59:13;;;;;;;;;3.00;3.00;;;;;10.88;44.91;68005.19;4973009;28;45575;-82
2023/03/28 08:01:44;;;;;;;;;3.00;3.00;;;;;11.31;44.79;68049.50;4987731;28;45367;-82
2023/03/28 08:04:11;;;;;;;;;5.67;4.00;;;;;11.48;44.73;68057.81;4994694;28;45413;-82
2023/03/28 08:06:39;;;;;;;;;4.33;4.00;;;;;11.38;44.48;68075.72;4994560;28;45431;-81
2023/03/28 08:09:07;;;;;;;;;4.00;4.00;;;;;11.58;44.28;68088.16;4992957;28;45569;-82
2023/03/28 08:11:33;;;;;;;;;3.00;3.00;;;;;11.20;44.02;68066.19;4984888;28;46364;-81
2023/03/28 08:14:03;;;;;;;;;3.33;3.00;;;;;11.24;44.27;68020.06;4992986;28;45530;-83
2023/03/28 08:16:29;;;;;;;;;5.00;5.00;;;;;11.67;44.16;68090.84;4990095;28;46545;-83
2023/03/28 08:18:55;;;;;;;;;4.00;4.00;;;;;11.19;44.30;68022.09;4991537;28;45467;-83
2023/03/28 08:21:20;;;;;;;;;7.00;7.00;;;;;10.74;44.38;68150.53;4991683;28;46969;-79
2023/03/28 08:23:46;;;;;;;;;8.00;5.00;;;;;10.80;43.93;67963.41;4985886;28;45783;-81
2023/03/28 08:26:11;;;;;;;;;6.00;5.00;;;;;11.90;43.79;68108.94;4988126;28;45753;-79
2023/03/28 08:28:40;;;;;;;;;4.33;4.33;;;;;11.94;43.80;68119.53;4987301;28;45622;-83
2023/03/28 08:31:13;;;;;;;;;4.00;4.00;;;;;12.01;43.72;68135.78;4990779;28;47119;-81
2023/03/28 08:33:43;;;;;;;;;6.00;3.67;;;;;12.06;43.61;68114.59;4989403;28;45587;-81
2023/03/28 08:36:13;;;;;;;;;5.33;5.00;;;;;12.00;43.77;68129.28;4992625;28;45368;-81
2023/03/28 08:38:40;;;;;;;;;3.00;3.00;;;;;11.14;43.03;68000.91;4992197;28;45820;-81
2023/03/28 08:41:17;;;;;;;;;3.00;3.00;;;;;12.16;42.93;68136.41;4993450;28;45472;-81
2023/03/28 08:43:52;;;;;;;;;3.00;3.00;;;;;12.16;43.06;68131.69;4987242;28;45480;-83
2023/03/28 08:46:20;;;;;;;;;3.00;3.00;;;;;12.16;43.29;68134.34;4994906;28;45640;-83
2023/03/28 08:48:48;;;;;;;;;3.33;3.33;;;;;12.16;42.70;68136.41;4995327;28;45493;-82
2023/03/28 08:51:28;;;;;;;;;3.00;3.00;;;;;12.16;43.39;68104.63;4995514;28;46099;-82
2023/03/28 08:54:18;;;;;;;;;5.00;3.67;;;;;12.17;43.07;68124.91;4994691;28;45367;-82
2023/03/28 08:56:48;;;;;;;;;5.00;4.00;;;;;11.78;42.98;68093.25;4970965;28;45439;-84
2023/03/28 08:59:17;;;;;;;;;4.00;2.67;;;;;12.20;42.71;68180.91;4963682;28;45388;-84
2023/03/28 09:01:43;;;;;;;;;4.00;4.00;;;;;12.19;42.07;68155.84;4994120;28;46463;-83
2023/03/28 09:04:30;;;;;;;;;2.33;2.33;;;;;12.19;42.30;68150.56;4988864;28;45518;-82
2023/03/28 09:07:06;;;;;;;;;3.00;3.00;;;;;11.90;42.11;68138.06;4993864;28;45635;-83
2023/03/28 09:09:40;;;;;;;;;2.00;2.00;;;;;11.98;42.46;68136.91;4996506;28;45379;-83
2023/03/28 09:12:53;;;;;;;;;5.67;5.67;;;;;12.23;42.03;68161.19;4996205;28;46752;-83
2023/03/28 09:15:32;;;;;;;;;2.00;2.00;;;;;11.97;42.51;68098.66;4918479;28;45504;-84
2023/03/28 09:18:16;;;;;;;;;2.33;2.33;;;;;12.31;41.09;68193.31;4934465;28;45494;-84
2023/03/28 09:20:50;;;;;;;;;2.67;2.67;;;;;12.36;41.41;68141.50;4936364;28;45391;-84
2023/03/28 09:23:30;;;;;;;;;4.00;3.00;;;;;12.05;41.29;68304.19;4936078;28;45613;-84
2023/03/28 09:26:05;;;;;;;;;1.67;1.67;;;;;12.09;41.51;68170.53;4934712;28;45548;-84
2023/03/28 09:28:51;;;;;;;;;4.67;2.00;;;;;12.15;41.74;68157.03;4935446;28;45520;-83
2023/03/28 09:31:19;;;;;;;;;4.00;4.00;;;;;12.20;40.84;68175.59;4922568;28;47187;-83
2023/03/28 09:33:47;;;;;;;;;0.00;0.00;;;;;12.45;41.31;68170.09;4933822;28;46710;-84
2023/03/28 09:36:21;;;;;;;;;5.00;3.00;;;;;11.99;41.23;68295.03;4937333;28;45474;-83
2023/03/28 09:38:52;;;;;;;;;4.33;3.00;;;;;12.51;41.31;68193.09;4939034;28;45437;-83
2023/03/28 09:41:41;;;;;;;;;1.00;1.00;;;;;12.12;40.95;68100.47;4938541;28;45797;-83
2023/03/28 09:44:13;;;;;;;;;1.00;1.00;;;;;12.29;41.51;68180.94;4936896;28;46200;-82
2023/03/28 09:50:03;;;;;;;;;2.00;2.00;;;;;12.39;41.13;68134.44;4934919;28;45456;-84
2023/03/28 09:52:30;;;;;;;;;1.33;1.33;;;;;12.16;41.15;68157.63;4938461;28;46344;-84
2023/03/28 09:54:56;;;;;;;;;2.67;1.00;;;;;12.71;40.91;68248.00;4937001;28;45715;-82
2023/03/28 09:57:22;;;;;;;;;3.00;1.67;;;;;13.05;40.59;68226.59;4932360;28;45471;-85
2023/03/28 09:59:47;;;;;;;;;9.00;9.00;;;;;13.20;40.87;68265.00;4933685;28;45978;-85
2023/03/28 10:02:32;;;;;;;;;3.00;3.00;;;;;13.15;40.07;68205.97;4930902;28;45727;-82
2023/03/28 10:04:58;;;;;;;;;2.00;2.00;;;;;13.40;39.75;68298.72;4935805;28;46189;-84
2023/03/28 10:07:28;;;;;;;;;1.33;0.00;;;;;13.75;39.44;68323.03;4933517;28;46218;-84
2023/03/28 10:09:56;;;;;;;;;1.67;1.67;;;;;13.69;39.03;68339.84;4942095;28;45458;-84
2023/03/28 10:12:25;;;;;;;;;2.33;1.33;;;;;13.82;39.57;68282.91;4922626;28;45497;-82
2023/03/28 10:14:50;;;;;;;;;3.00;2.00;;;;;13.76;39.76;68302.94;4939021;28;46237;-83
2023/03/28 10:17:25;;;;;;;;;0.67;0.67;;;;;13.78;39.62;68328.66;4938251;28;45407;-83
2023/03/28 10:19:52;;;;;;;;;0.67;0.33;;;;;13.77;39.16;68401.88;4938609;28;45551;-82
2023/03/28 10:22:32;;;;;;;;;0.00;0.00;;;;;13.21;39.44;68234.31;4931445;28;45567;-83
2023/03/28 10:24:59;;;;;;;;;0.67;0.67;;;;;13.60;39.09;68292.59;4936319;28;45859;-83
2023/03/28 10:27:36;;;;;;;;;2.00;2.00;;;;;13.54;39.07;68319.44;4969369;28;45417;-84
2023/03/28 10:30:22;;;;;;;;;1.33;1.00;;;;;13.70;39.17;68333.06;4976684;28;45534;-83
2023/03/28 10:33:09;;;;;;;;;3.00;1.00;;;;;13.65;38.33;68314.44;4977608;28;45479;-83
2023/03/28 10:35:35;;;;;;;;;1.67;1.67;;;;;13.60;38.54;68300.56;4974436;28;47200;-82
2023/03/28 10:38:03;;;;;;;;;0.33;0.33;;;;;12.94;38.77;68218.31;4976427;28;45395;-83
2023/03/28 10:40:31;;;;;;;;;0.33;0.33;;;;;13.27;38.14;68244.09;4972698;28;45548;-86
2023/03/28 10:42:58;;;;;;;;;0.67;0.67;;;;;12.73;38.55;68300.78;4993727;23;45666;-87
2023/03/28 10:45:23;;;;;;;;;2.00;0.33;;;;;13.46;38.82;68321.78;4991420;28;46873;-85
2023/03/28 10:47:54;;;;;;;;;0.33;0.33;;;;;12.95;38.69;68267.88;4987329;28;45503;-87
2023/03/28 10:50:24;;;;;;;;;1.00;1.00;;;;;12.67;38.63;68248.59;4984200;28;45589;-85
2023/03/28 10:53:00;;;;;;;;;1.00;0.67;;;;;12.42;38.22;68225.47;4992616;28;45300;-86
2023/03/28 10:55:39;;;;;;;;;0.00;0.00;;;;;12.90;38.69;68224.81;4991042;28;45494;-86
2023/03/28 10:58:31;;;;;;;;;2.33;2.33;;;;;13.40;38.32;68295.47;4988745;28;45455;-87
2023/03/28 11:01:24;;;;;;;;;1.33;0.00;;;;;12.35;38.51;68304.69;4985713;28;45495;-86
2023/03/28 11:04:21;;;;;;;;;0.67;0.67;;;;;12.54;38.50;68209.91;4987961;28;45618;-92
2023/03/28 11:07:02;;;;;;;;;1.00;1.00;;;;;13.36;38.84;68171.81;4990982;28;46208;-85
2023/03/28 11:09:37;;;;;;;;;0.67;0.67;;;;;13.39;38.82;68275.69;4989506;28;45564;-86
2023/03/28 11:12:36;;;;;;;;;0.67;0.67;;;;;13.17;39.23;68261.44;4990978;28;45504;-86
2023/03/28 11:15:07;;;;;;;;;0.67;0.67;;;;;13.50;39.08;68349.81;4991400;28;45534;-86
2023/03/28 11:18:20;;;;;;;;;3.33;1.33;;;;;13.55;38.79;68305.25;4981300;28;45451;-88
2023/03/28 11:20:57;;;;;;;;;1.67;0.67;;;;;13.55;38.52;68329.16;4985435;28;45616;-89
2023/03/28 11:23:43;;;;;;;;;1.33;0.67;;;;;13.54;38.34;68304.06;4989848;28;45644;-87
2023/03/28 11:26:16;;;;;;;;;0.67;0.67;;;;;12.17;38.35;68129.63;4986290;28;45638;-87
2023/03/28 11:28:59;;;;;;;;;1.00;1.00;;;;;13.58;38.44;68332.72;4983582;28;47224;-88
2023/03/28 11:31:47;;;;;;;;;1.00;1.00;;;;;12.37;38.17;68312.34;4982806;28;45454;-85
2023/03/28 11:34:23;;;;;;;;;0.67;0.67;;;;;13.63;39.01;68239.75;4989881;28;45416;-85
2023/03/28 11:37:04;;;;;;;;;1.67;1.67;;;;;13.31;39.10;68383.66;4981474;28;45373;-85
2023/03/28 11:39:41;;;;;;;;;2.00;2.00;;;;;13.65;38.99;68295.25;4993729;28;45525;-85
2023/03/28 11:42:13;;;;;;;;;3.00;1.67;;;;;12.61;39.27;68344.91;4984714;28;45469;-84
2023/03/28 11:45:03;;;;;;;;;1.67;0.67;;;;;13.41;39.28;68296.66;4990837;28;45771;-84
2023/03/28 11:47:38;;;;;;;;;1.00;0.67;;;;;13.70;39.39;68327.75;4981383;28;45325;-87
2023/03/28 11:50:21;;;;;;;;;2.67;1.00;;;;;13.58;39.56;68431.03;4990588;28;46326;-86
2023/03/28 11:53:05;;;;;;;;;0.67;0.67;;;;;13.63;39.48;68295.56;4981903;28;45901;-86
2023/03/28 11:55:35;;;;;;;;;2.00;1.00;;;;;12.39;39.45;68181.56;4981224;28;45464;-86
2023/03/28 11:58:17;;;;;;;;;0.00;0.00;;;;;13.94;39.50;68313.63;4990918;28;45364;-84
2023/03/28 12:00:50;;;;;;;;;1.00;1.00;;;;;14.10;39.60;68321.34;4989400;28;46801;-85
2023/03/28 12:03:29;;;;;;;;;1.67;1.00;;;;;14.23;39.63;68362.72;4995833;28;45491;-85
2023/03/28 12:06:19;;;;;;;;;3.00;3.00;;;;;13.81;38.46;68289.66;4982356;28;45440;-87
2023/03/28 12:08:55;;;;;;;;;1.33;0.33;;;;;14.06;38.66;68411.72;4983642;28;45706;-86
2023/03/28 12:11:41;;;;;;;;;2.00;2.00;;;;;13.19;38.65;68239.34;4993889;28;46316;-86
2023/03/28 12:14:34;;;;;;;;;1.00;1.00;;;;;14.26;38.94;68368.94;4984313;28;45509;-84
2023/03/28 12:17:09;;;;;;;;;1.00;1.00;;;;;14.31;39.07;68390.22;4986360;28;45498;-85
2023/03/28 12:19:40;;;;;;;;;1.00;1.00;;;;;14.33;39.31;68401.16;4996523;28;45572;-84
2023/03/28 12:22:29;;;;;;;;;0.00;0.00;;;;;14.39;39.12;68383.72;4988996;28;46535;-83
2023/03/28 12:26:08;;;;;;;;;2.00;1.00;;;;;12.94;38.32;68202.38;4969583;28;45745;-91
2023/03/28 12:28:57;;;;;;;;;0.67;0.67;;;;;14.58;38.78;68434.94;4893083;29;45578;-89
2023/03/28 12:32:01;;;;;;;;;1.00;1.00;;;;;14.61;38.89;68392.66;4991625;28;45556;-90
2023/03/28 12:34:47;;;;;;;;;4.00;3.00;;;;;13.49;38.56;68276.91;4986362;28;46226;-87
2023/03/28 12:37:27;;;;;;;;;1.67;1.33;;;;;13.58;38.71;68321.50;4987535;28;46061;-86
2023/03/28 12:40:43;;;;;;;;;1.00;1.00;;;;;14.53;38.94;68407.72;4983477;28;45650;-92
2023/03/28 12:43:55;;;;;;;;;1.00;1.00;;;;;14.51;38.27;68307.47;4923966;28;45605;-91
2023/03/28 12:46:51;;;;;;;;;1.00;1.00;;;;;14.51;38.91;68424.53;5027117;23;47226;-93
2023/03/28 12:49:46;;;;;;;;;0.00;0.00;;;;;14.48;38.90;68413.03;4995508;28;45383;-93
2023/03/28 12:52:18;;;;;;;;;1.00;1.00;;;;;14.27;39.17;68343.53;4976984;28;45418;-93
2023/03/28 12:55:01;;;;;;;;;1.00;1.00;;;;;14.00;38.96;68324.84;5001181;28;45613;-94
2023/03/28 12:57:45;;;;;;;;;0.00;0.00;;;;;14.37;39.51;68397.31;4993386;28;46222;-94
2023/03/28 13:01:07;;;;;;;;;3.33;0.00;;;;;14.36;39.54;68364.22;4987113;28;46102;-93
2023/03/28 13:03:41;;;;;;;;;0.00;0.00;;;;;14.33;39.24;68377.22;4953840;28;45484;-93
2023/03/28 13:06:43;;;;;;;;;1.00;0.67;;;;;14.29;38.90;68388.44;4937050;28;45584;-94
2023/03/28 13:09:23;;;;;;;;;2.00;0.67;;;;;14.26;39.50;68384.31;4954282;28;47432;-94
2023/03/28 13:11:57;;;;;;;;;2.00;2.00;;;;;14.07;39.35;68338.47;4936576;28;45962;-93
2023/03/28 13:14:37;;;;;;;;;1.00;1.00;;;;;14.07;39.44;68363.00;4957080;28;45480;-94
2023/03/28 13:17:22;;;;;;;;;2.00;1.00;;;;;14.18;39.78;68375.41;4958150;28;45453;-90
2023/03/28 13:20:25;;;;;;;;;1.00;1.00;;;;;14.04;39.84;68348.19;4953695;28;45452;-90
2023/03/28 13:22:56;;;;;;;;;1.67;0.00;;;;;13.80;39.94;68466.56;4953932;28;45512;-91
2023/03/28 13:25:31;;;;;;;;;0.67;0.67;;;;;13.61;40.03;68309.13;4954677;28;45511;-90
2023/03/28 13:28:21;;;;;;;;;1.67;1.67;;;;;14.08;39.88;68374.81;4935593;28;45345;-91
2023/03/28 13:31:18;;;;;;;;;1.00;1.00;;;;;14.01;39.96;68357.94;4951987;28;47286;-91
2023/03/28 13:33:54;;;;;;;;;0.00;0.00;;;;;14.08;40.03;68342.31;4962765;28;45383;-91
2023/03/28 13:36:25;;;;;;;;;0.67;0.67;;;;;13.99;40.08;68307.72;4976837;28;45384;-91
2023/03/28 13:38:58;;;;;;;;;0.00;0.00;;;;;14.05;40.02;68389.88;5011761;28;45500;-90
2023/03/28 13:41:39;;;;;;;;;0.33;0.33;;;;;14.04;40.20;68367.41;5009905;28;47345;-91
2023/03/28 13:44:17;;;;;;;;;0.33;0.00;;;;;14.06;40.14;68339.94;4995374;28;45778;-91
2023/03/28 13:46:48;;;;;;;;;0.00;0.00;;;;;13.58;40.24;68300.25;5008701;28;45374;-91
2023/03/28 13:49:30;;;;;;;;;0.33;0.33;;;;;14.08;40.17;68323.69;5004881;28;45675;-91
2023/03/28 13:52:23;;;;;;;;;0.33;0.33;;;;;13.93;40.44;68333.72;4995374;28;46462;-90
2023/03/28 13:54:54;;;;;;;;;0.67;0.67;;;;;13.62;40.00;68276.34;4984995;28;45497;-89
2023/03/28 13:57:22;;;;;;;;;1.00;1.00;;;;;14.15;40.47;68417.06;5008242;28;45399;-89
2023/03/28 13:59:52;;;;;;;;;1.00;1.00;;;;;14.10;40.56;68331.97;4989794;28;45337;-90
2023/03/28 14:02:44;;;;;;;;;1.00;0.33;;;;;14.03;40.94;68368.28;4992777;28;46437;-90
2023/03/28 14:05:09;;;;;;;;;0.00;0.00;;;;;14.05;40.69;68349.41;5010942;28;45352;-89
2023/03/28 14:07:35;;;;;;;;;0.00;0.00;;;;;13.43;40.39;68461.03;4995076;28;45490;-90
2023/03/28 14:10:00;;;;;;;;;0.67;0.67;;;;;13.66;40.86;68310.31;4991643;28;45486;-89
2023/03/28 14:12:28;;;;;;;;;1.00;0.00;;;;;13.89;41.04;68325.72;4998385;28;47537;-89
2023/03/28 14:14:57;;;;;;;;;2.00;2.00;;;;;13.48;40.92;68244.44;4999885;28;45441;-90
2023/03/28 14:17:26;;;;;;;;;0.00;0.00;;;;;13.80;41.07;68439.97;4998386;28;45325;-89
2023/03/28 14:19:56;;;;;;;;;1.00;1.00;;;;;13.62;41.24;68302.91;4993750;28;45586;-89
2023/03/28 14:22:30;;;;;;;;;0.67;0.67;;;;;13.76;41.88;68334.25;4989768;28;45475;-89
2023/03/28 14:25:16;;;;;;;;;0.00;0.00;;;;;13.93;41.81;68309.78;4999062;28;45367;-89
2023/03/28 14:27:44;;;;;;;;;0.00;0.00;;;;;13.93;42.09;68320.41;4999227;28;45236;-89
2023/03/28 14:30:36;;;;;;;;;1.67;0.00;;;;;13.62;41.71;68297.00;4999870;28;45320;-89
2023/03/28 14:33:12;;;;;;;;;0.00;0.00;;;;;13.95;41.53;68346.09;4993044;28;47149;-90
2023/03/28 14:35:41;;;;;;;;;0.00;0.00;;;;;13.96;40.77;68330.78;4992572;28;46721;-91
2023/03/28 14:38:15;;;;;;;;;0.67;0.67;;;;;13.94;40.75;68321.00;4993298;28;45581;-92
2023/03/28 14:40:43;;;;;;;;;1.00;1.00;;;;;12.86;39.47;68382.50;4997579;28;45477;-93
2023/03/28 14:43:09;;;;;;;;;0.00;0.00;;;;;13.84;40.07;68354.94;5015996;28;48259;-92
2023/03/28 14:45:37;;;;;;;;;1.33;0.67;;;;;13.75;39.72;68309.75;5015970;28;45466;-93
2023/03/28 14:48:11;;;;;;;;;1.00;1.00;;;;;13.78;39.70;68349.91;5015613;28;45355;-95
2023/03/28 14:50:39;;;;;;;;;0.33;0.33;;;;;13.51;40.22;68287.84;4997991;28;45572;-94
2023/03/28 14:53:11;;;;;;;;;0.67;0.67;;;;;13.77;39.52;68298.84;4994728;28;47129;-94
2023/03/28 14:55:37;;;;;;;;;2.00;0.00;;;;;13.83;40.06;68292.03;4994964;28;45452;-93
2023/03/28 14:58:05;;;;;;;;;0.00;0.00;;;;;13.63;39.88;68287.59;4985647;28;45417;-93
2023/03/28 15:00:40;;;;;;;;;0.00;0.00;;;;;13.36;39.74;68221.69;4993843;28;45688;-93
2023/03/28 15:03:22;;;;;;;;;1.67;0.00;;;;;14.05;40.20;68360.63;4996043;28;48192;-93
2023/03/28 15:05:50;;;;;;;;;0.00;0.00;;;;;13.82;39.98;68530.06;5000893;28;45439;-94
2023/03/28 15:08:30;;;;;;;;;0.00;0.00;;;;;13.37;39.38;68283.94;4994746;28;45412;-94
2023/03/28 15:10:58;;;;;;;;;0.00;0.00;;;;;13.76;39.29;68494.28;4994700;28;45245;-93
2023/03/28 15:13:36;;;;;;;;;0.00;0.00;;;;;13.86;39.38;68322.78;5014515;28;47230;-92
2023/03/28 15:16:04;;;;;;;;;0.00;0.00;;;;;13.86;39.28;68341.38;5016832;28;45381;-92
2023/03/28 15:18:34;;;;;;;;;0.00;0.00;;;;;13.52;39.39;68214.63;4997632;28;45357;-93
2023/03/28 15:21:02;;;;;;;;;0.67;0.00;;;;;13.88;39.71;68362.34;4990545;28;45350;-92
2023/03/28 15:23:30;;;;;;;;;0.00;0.00;;;;;13.42;39.19;68226.72;4980923;28;47662;-92
2023/03/28 15:26:02;;;;;;;;;0.00;0.00;;;;;13.56;39.01;68479.13;4998569;28;45321;-92
2023/03/28 15:28:29;;;;;;;;;1.33;0.00;;;;;13.44;38.93;68183.38;4990208;28;45633;-91
2023/03/28 15:30:59;;;;;;;;;0.00;0.00;;;;;13.45;39.20;68253.59;4986810;28;47154;-91
2023/03/28 15:33:25;;;;;;;;;0.00;0.00;;;;;13.65;39.30;68481.22;4992888;28;45398;-91
2023/03/28 15:36:23;;;;;;;;;0.33;0.33;;;;;13.23;39.69;68267.97;4990604;28;45424;-91
2023/03/28 15:38:50;;;;;;;;;0.67;0.00;;;;;13.34;39.29;68480.16;4990129;28;45546;-91
2023/03/28 15:41:27;;;;;;;;;1.00;1.00;;;;;13.92;39.40;68340.50;4997970;28;45439;-90
2023/03/28 15:43:52;;;;;;;;;0.00;0.00;;;;;13.93;39.58;68339.03;4993394;28;46967;-90
2023/03/28 15:46:20;;;;;;;;;1.33;1.00;;;;;13.43;39.41;68376.63;5011232;28;45686;-90
2023/03/28 15:48:47;;;;;;;;;0.33;0.33;;;;;13.63;39.67;68338.66;4996419;28;45505;-91
2023/03/28 15:51:17;;;;;;;;;1.00;1.00;;;;;13.43;39.85;68277.78;4994282;28;45435;-91
2023/03/28 15:53:47;;;;;;;;;1.00;1.00;;;;;13.88;39.15;68338.44;4978333;28;45426;-90
2023/03/28 15:56:24;;;;;;;;;0.00;0.00;;;;;13.59;39.55;68302.03;4981657;28;45513;-91
2023/03/28 15:58:50;;;;;;;;;0.00;0.00;;;;;13.51;39.45;68271.91;4984756;28;45489;-88
2023/03/28 16:01:26;;;;;;;;;0.00;0.00;;;;;13.71;39.69;68379.41;4997589;28;45560;-89
2023/03/28 16:04:24;;;;;;;;;0.00;0.00;;;;;13.93;39.74;68333.72;4992844;28;46198;-89
2023/03/28 16:07:12;;;;;;;;;1.00;1.00;;;;;13.92;39.93;68316.56;4995346;28;45413;-89
2023/03/28 16:09:41;;;;;;;;;0.33;0.33;;;;;13.71;40.20;68294.38;4982007;28;45626;-89
2023/03/28 16:12:12;;;;;;;;;2.00;0.67;;;;;13.59;40.25;68307.34;4990431;28;45458;-90
2023/03/28 16:14:46;;;;;;;;;0.00;0.00;;;;;13.82;40.24;68333.97;4981025;28;47772;-90
2023/03/28 16:17:12;;;;;;;;;0.00;0.00;;;;;13.65;40.32;68321.81;4992721;28;45573;-90
2023/03/28 16:19:37;;;;;;;;;1.00;0.67;;;;;13.30;40.52;68207.81;4986902;28;45987;-89
2023/03/28 16:22:02;;;;;;;;;0.00;0.00;;;;;13.92;40.54;68387.75;4993633;28;45367;-90
2023/03/28 16:24:28;;;;;;;;;0.00;0.00;;;;;13.75;40.83;68293.22;4993692;28;45793;-94
2023/03/28 16:26:54;;;;;;;;;0.33;0.33;;;;;13.57;40.93;68283.13;5012120;28;45557;-96
2023/03/28 16:29:19;;;;;;;;;0.00;0.00;;;;;12.86;40.96;68308.22;4984793;28;45311;-93
2023/03/28 16:31:45;;;;;;;;;0.33;0.33;;;;;13.62;40.78;68308.22;4996200;28;45535;-95
2023/03/28 16:34:10;;;;;;;;;1.00;1.00;;;;;13.39;41.20;68252.41;5007358;28;47015;-92
2023/03/28 16:36:37;;;;;;;;;0.00;0.00;;;;;13.97;41.36;68308.03;4991254;28;45579;-88
2023/03/28 16:39:04;;;;;;;;;0.00;0.00;;;;;13.86;41.08;68338.72;4990650;28;45460;-88
2023/03/28 16:41:30;;;;;;;;;1.00;1.00;;;;;13.34;41.34;68211.94;4991267;28;45542;-91
2023/03/28 16:43:55;;;;;;;;;0.00;0.00;;;;;13.82;42.73;68322.75;5007047;28;47230;-87
2023/03/28 16:46:20;;;;;;;;;1.00;1.00;;;;;13.49;42.67;68253.00;4993955;28;45391;-92
2023/03/28 16:48:46;;;;;;;;;1.00;1.00;;;;;13.69;42.88;68297.31;4993843;28;45428;-90
2023/03/28 16:51:11;;;;;;;;;1.00;1.00;;;;;13.57;42.65;68245.94;4991928;28;45509;-89
2023/03/28 16:53:39;;;;;;;;;1.00;1.00;;;;;13.72;42.52;68341.34;4994987;28;45377;-96
2023/03/28 16:56:07;;;;;;;;;1.00;1.00;;;;;13.40;42.49;68229.09;5009788;28;45494;-93
2023/03/28 16:58:33;;;;;;;;;0.00;0.00;;;;;13.68;42.02;68221.75;5000394;28;45402;-94
2023/03/28 17:01:07;;;;;;;;;0.33;0.33;;;;;13.48;41.97;68265.09;5013230;28;45490;-95
2023/03/28 17:03:32;;;;;;;;;0.67;0.67;;;;;13.20;42.05;68246.41;5003450;28;47343;-95
2023/03/28 17:06:03;;;;;;;;;0.67;0.67;;;;;13.36;42.14;68248.25;5013163;28;45535;-94